Terminal Aerodrome Forecast
Issued by NWS Melbourne, FL

Home | Current Version | Previous Version | Text Only | Print | Product List | Glossary On
Versions: 1 2 3 4 5 6 7 8 9 10 11 12 13 14
000
FTUS42 KMLB 022300 RRA
TAFVRB
TAF
KVRB 022342Z 0300/0324 10008KT P6SM FEW030 SCT250
     FM030300 12003KT P6SM FEW030
     FM031400 09009KT P6SM VCSH SCT030 SCT250=

USA.gov is the U.S. government's official web portal to all federal, state and local government web resources and services.